Accueil
METAR-TAF:

METAR-TAF

Aéroports :

La Chaux-de-Fonds, Suisse

Aéroport régional Les Éplatures

latitude: 47-05-03N, longitude: 006-47-37E, altitude: 1027 m

Observation

Le bulletin a été fait il y a 16 minutes, à 02:20 UTC
Vent 10 kt de ouest/sud-ouest
Température 1°C
Humidité 93%
Pression 1009 hPa
Visibilité: 9000 m
neige faible

METAR: LSGC 010220Z AUTO 24010KT 9000 -SN VV010 01/00 Q1009

Heure: 04:36 (02:36 UTC)

Prévision

Le bulletin a été fait il y a 12 heures et 11 minutes, à 14:25 UTC
Prévision valable du 30 à 15 UTC au 30 à 24 UTC
Vent 4 kt de sud
Visibilité 10 km ou plus
pas de nuages en-dessous de 1500 mètres et pas de cumulonimbus.
Evoluant progressivement
du 30 à 21 UTC au 30 à 23 UTC
Vent 9 kt de sud-ouest
Visibilité 10 km ou plus
Nuages fragmentés à une hauteur de 1400 ft

TAF: LSGC 301425Z 3015/3024 19004KT CAVOK BECMG 3021/3023 23009KT 9999 BKN014

Observations et prévisions météorologiques de plus de 4000 aéroports (messages METAR et TAF).

Les stations disponibles sont représentées par des disques jaunes et rouges sur la carte.

Passer la souris dessus pour voir le nom de la station.

Cliquer dessus pour voir les observations et prévisions météorologiques.

Pour changer de carte: cliquez sur les boutons verts avec une croix noire pour zoomer, sur le bouton vert avec un tiret pour effectuer un zoom arrière, ou sur les flèches vertes pour les cartes adjacentes.


METAR-TAF: